sensor_id;sensor_type;location;lat;lon;timestamp;pressure;altitude;pressure_sealevel;temperature;humidity
75424;BME280;64005;55.160;36.002;2023-02-10T00:01:17;100233.88;;;-2.21;69.98
75424;BME280;64005;55.160;36.002;2023-02-10T00:03:45;100225.09;;;-2.23;69.64
75424;BME280;64005;55.160;36.002;2023-02-10T00:06:13;100218.81;;;-2.23;69.80
75424;BME280;64005;55.160;36.002;2023-02-10T00:08:42;100211.47;;;-2.23;69.78
75424;BME280;64005;55.160;36.002;2023-02-10T00:11:12;100192.94;;;-2.39;70.14
75424;BME280;64005;55.160;36.002;2023-02-10T00:13:41;100205.69;;;-2.33;70.15
75424;BME280;64005;55.160;36.002;2023-02-10T00:16:14;100201.06;;;-2.32;70.02
75424;BME280;64005;55.160;36.002;2023-02-10T00:18:41;100193.97;;;-2.33;70.00
75424;BME280;64005;55.160;36.002;2023-02-10T00:21:11;100188.94;;;-2.36;70.27
75424;BME280;64005;55.160;36.002;2023-02-10T00:23:39;100190.63;;;-2.35;70.47
75424;BME280;64005;55.160;36.002;2023-02-10T00:26:10;100191.66;;;-2.36;70.31
75424;BME280;64005;55.160;36.002;2023-02-10T00:28:38;100190.63;;;-2.35;70.22
75424;BME280;64005;55.160;36.002;2023-02-10T00:31:06;100186.16;;;-2.30;69.79
75424;BME280;64005;55.160;36.002;2023-02-10T00:33:35;100175.66;;;-2.26;69.96
75424;BME280;64005;55.160;36.002;2023-02-10T00:36:04;100173.38;;;-2.29;69.92
75424;BME280;64005;55.160;36.002;2023-02-10T00:38:32;100164.81;;;-2.33;69.88
75424;BME280;64005;55.160;36.002;2023-02-10T00:41:02;100167.16;;;-2.36;70.06
75424;BME280;64005;55.160;36.002;2023-02-10T00:43:29;100160.88;;;-2.37;70.55
75424;BME280;64005;55.160;36.002;2023-02-10T00:45:57;100164.88;;;-2.39;70.09
75424;BME280;64005;55.160;36.002;2023-02-10T00:48:25;100166.31;;;-2.37;70.34
75424;BME280;64005;55.160;36.002;2023-02-10T00:50:54;100157.53;;;-2.39;70.44
75424;BME280;64005;55.160;36.002;2023-02-10T00:53:22;100153.75;;;-2.38;70.42
75424;BME280;64005;55.160;36.002;2023-02-10T00:55:49;100153.53;;;-2.36;70.29
75424;BME280;64005;55.160;36.002;2023-02-10T00:58:17;100142.63;;;-2.36;70.16
75424;BME280;64005;55.160;36.002;2023-02-10T01:00:44;100143.09;;;-2.39;70.47
75424;BME280;64005;55.160;36.002;2023-02-10T01:03:12;100133.47;;;-2.42;70.81
75424;BME280;64005;55.160;36.002;2023-02-10T01:05:39;100133.69;;;-2.44;70.83
75424;BME280;64005;55.160;36.002;2023-02-10T01:08:08;100129.75;;;-2.48;70.59
75424;BME280;64005;55.160;36.002;2023-02-10T01:10:36;100131.63;;;-2.48;70.65
75424;BME280;64005;55.160;36.002;2023-02-10T01:13:05;100131.41;;;-2.47;70.61
75424;BME280;64005;55.160;36.002;2023-02-10T01:15:44;100123.69;;;-2.50;71.00
75424;BME280;64005;55.160;36.002;2023-02-10T01:18:11;100128.75;;;-2.53;70.39
75424;BME280;64005;55.160;36.002;2023-02-10T01:20:40;100126.03;;;-2.53;70.83
75424;BME280;64005;55.160;36.002;2023-02-10T01:23:09;100119.13;;;-2.56;70.79
75424;BME280;64005;55.160;36.002;2023-02-10T01:25:38;100120.19;;;-2.57;71.07
75424;BME280;64005;55.160;36.002;2023-02-10T01:28:06;100111.19;;;-2.57;71.38
75424;BME280;64005;55.160;36.002;2023-02-10T01:30:34;100114.13;;;-2.59;70.79
75424;BME280;64005;55.160;36.002;2023-02-10T01:33:02;100114.13;;;-2.59;71.05
75424;BME280;64005;55.160;36.002;2023-02-10T01:35:30;100097.78;;;-2.59;70.76
75424;BME280;64005;55.160;36.002;2023-02-10T01:37:58;100093.41;;;-2.60;70.75
75424;BME280;64005;55.160;36.002;2023-02-10T01:40:28;100097.63;;;-2.64;70.97
75424;BME280;64005;55.160;36.002;2023-02-10T01:42:56;100091.34;;;-2.64;71.20
75424;BME280;64005;55.160;36.002;2023-02-10T01:45:26;100071.91;;;-2.68;70.84
75424;BME280;64005;55.160;36.002;2023-02-10T01:47:55;100068.97;;;-2.66;71.15
75424;BME280;64005;55.160;36.002;2023-02-10T01:50:27;100052.50;;;-2.78;71.08
75424;BME280;64005;55.160;36.002;2023-02-10T01:52:57;100024.06;;;-2.82;71.13
75424;BME280;64005;55.160;36.002;2023-02-10T01:55:30;100042.66;;;-2.79;71.49
75424;BME280;64005;55.160;36.002;2023-02-10T01:58:01;100038.94;;;-2.85;71.33
75424;BME280;64005;55.160;36.002;2023-02-10T02:00:29;100034.63;;;-2.92;71.69
75424;BME280;64005;55.160;36.002;2023-02-10T02:02:57;100037.25;;;-3.04;71.92
75424;BME280;64005;55.160;36.002;2023-02-10T02:05:32;100030.03;;;-3.16;72.02
75424;BME280;64005;55.160;36.002;2023-02-10T02:08:04;99985.16;;;-3.57;72.29
75424;BME280;64005;55.160;36.002;2023-02-10T02:10:41;99986.41;;;-3.53;72.35
75424;BME280;64005;55.160;36.002;2023-02-10T02:13:15;100021.81;;;-3.35;72.64
75424;BME280;64005;55.160;36.002;2023-02-10T02:15:49;100020.19;;;-3.42;72.51
75424;BME280;64005;55.160;36.002;2023-02-10T02:18:26;100005.44;;;-3.53;72.50
75424;BME280;64005;55.160;36.002;2023-02-10T02:24:09;99972.59;;;-3.83;72.95
75424;BME280;64005;55.160;36.002;2023-02-10T02:27:37;100004.06;;;-3.69;72.82
75424;BME280;64005;55.160;36.002;2023-02-10T02:30:21;99990.72;;;-3.77;72.85
75424;BME280;64005;55.160;36.002;2023-02-10T02:32:58;99985.53;;;-3.85;73.39
75424;BME280;64005;55.160;36.002;2023-02-10T02:35:31;99978.09;;;-3.96;73.80
75424;BME280;64005;55.160;36.002;2023-02-10T02:37:59;99972.50;;;-4.01;73.53
75424;BME280;64005;55.160;36.002;2023-02-10T02:40:27;99967.47;;;-4.04;73.83
75424;BME280;64005;55.160;36.002;2023-02-10T02:42:54;99967.31;;;-4.09;73.44
75424;BME280;64005;55.160;36.002;2023-02-10T02:45:32;99968.56;;;-4.12;74.08
75424;BME280;64005;55.160;36.002;2023-02-10T02:48:19;99974.41;;;-4.08;73.82
75424;BME280;64005;55.160;36.002;2023-02-10T02:50:53;99979.22;;;-4.10;73.71
75424;BME280;64005;55.160;36.002;2023-02-10T02:53:29;99977.16;;;-4.15;73.97
75424;BME280;64005;55.160;36.002;2023-02-10T02:56:06;99957.56;;;-4.23;74.22
75424;BME280;64005;55.160;36.002;2023-02-10T02:58:47;99946.53;;;-4.28;74.35
75424;BME280;64005;55.160;36.002;2023-02-10T03:01:23;99951.31;;;-4.30;74.51
75424;BME280;64005;55.160;36.002;2023-02-10T03:03:56;99909.84;;;-4.51;74.45
75424;BME280;64005;55.160;36.002;2023-02-10T03:06:24;99938.78;;;-4.31;74.66
75424;BME280;64005;55.160;36.002;2023-02-10T03:08:52;99941.97;;;-4.34;74.35
75424;BME280;64005;55.160;36.002;2023-02-10T03:11:21;99928.00;;;-4.45;74.54
75424;BME280;64005;55.160;36.002;2023-02-10T03:13:48;99920.34;;;-4.54;74.70
75424;BME280;64005;55.160;36.002;2023-02-10T03:16:16;99909.91;;;-4.64;74.75
75424;BME280;64005;55.160;36.002;2023-02-10T03:18:43;99913.72;;;-4.71;75.35
75424;BME280;64005;55.160;36.002;2023-02-10T03:21:12;99914.56;;;-4.77;75.38
75424;BME280;64005;55.160;36.002;2023-02-10T03:23:40;99912.50;;;-4.82;75.48
75424;BME280;64005;55.160;36.002;2023-02-10T03:26:07;99905.03;;;-4.87;75.25
75424;BME280;64005;55.160;36.002;2023-02-10T03:28:35;99894.59;;;-4.90;76.01
75424;BME280;64005;55.160;36.002;2023-02-10T03:31:04;99874.81;;;-5.10;75.67
75424;BME280;64005;55.160;36.002;2023-02-10T03:33:32;99877.09;;;-5.00;76.12
75424;BME280;64005;55.160;36.002;2023-02-10T03:36:00;99881.50;;;-4.99;76.01
75424;BME280;64005;55.160;36.002;2023-02-10T03:38:29;99869.81;;;-5.00;75.49
75424;BME280;64005;55.160;36.002;2023-02-10T03:40:56;99866.84;;;-4.98;76.03
75424;BME280;64005;55.160;36.002;2023-02-10T03:43:24;99869.56;;;-4.98;75.89
75424;BME280;64005;55.160;36.002;2023-02-10T03:45:52;99859.97;;;-4.94;76.33
75424;BME280;64005;55.160;36.002;2023-02-10T03:48:19;99859.31;;;-4.90;76.15
75424;BME280;64005;55.160;36.002;2023-02-10T03:50:48;99854.31;;;-4.86;75.86
75424;BME280;64005;55.160;36.002;2023-02-10T03:53:16;99854.69;;;-4.83;75.38
75424;BME280;64005;55.160;36.002;2023-02-10T03:55:44;99848.84;;;-4.79;76.21
75424;BME280;64005;55.160;36.002;2023-02-10T03:58:12;99848.59;;;-4.78;76.17
75424;BME280;64005;55.160;36.002;2023-02-10T04:00:39;99835.66;;;-4.76;75.90
75424;BME280;64005;55.160;36.002;2023-02-10T04:03:07;99851.53;;;-4.73;75.86
75424;BME280;64005;55.160;36.002;2023-02-10T04:05:34;99852.13;;;-4.71;75.58
75424;BME280;64005;55.160;36.002;2023-02-10T04:08:02;99837.28;;;-4.68;75.65
75424;BME280;64005;55.160;36.002;2023-02-10T04:10:33;99825.78;;;-4.64;76.17
75424;BME280;64005;55.160;36.002;2023-02-10T04:13:02;99830.59;;;-4.66;75.84
75424;BME280;64005;55.160;36.002;2023-02-10T04:15:29;99832.88;;;-4.63;75.69
75424;BME280;64005;55.160;36.002;2023-02-10T04:17:59;99828.06;;;-4.61;75.68
75424;BME280;64005;55.160;36.002;2023-02-10T04:20:27;99832.44;;;-4.60;75.62
75424;BME280;64005;55.160;36.002;2023-02-10T04:22:54;99835.16;;;-4.60;75.39
75424;BME280;64005;55.160;36.002;2023-02-10T04:25:22;99823.25;;;-4.59;75.68
75424;BME280;64005;55.160;36.002;2023-02-10T04:27:49;99830.56;;;-4.59;75.88
75424;BME280;64005;55.160;36.002;2023-02-10T04:30:18;99820.75;;;-4.60;75.35
75424;BME280;64005;55.160;36.002;2023-02-10T04:32:46;99821.81;;;-4.61;75.41
75424;BME280;64005;55.160;36.002;2023-02-10T04:35:13;99822.63;;;-4.61;75.84
75424;BME280;64005;55.160;36.002;2023-02-10T04:37:41;99825.34;;;-4.61;76.19
75424;BME280;64005;55.160;36.002;2023-02-10T04:40:09;99820.97;;;-4.62;75.46
75424;BME280;64005;55.160;36.002;2023-02-10T04:42:39;99812.81;;;-4.62;76.27
75424;BME280;64005;55.160;36.002;2023-02-10T04:45:07;99817.00;;;-4.59;75.42
75424;BME280;64005;55.160;36.002;2023-02-10T04:47:36;99824.31;;;-4.60;76.04
75424;BME280;64005;55.160;36.002;2023-02-10T04:50:04;99821.34;;;-4.58;76.35
75424;BME280;64005;55.160;36.002;2023-02-10T04:52:32;99819.47;;;-4.58;76.19
75424;BME280;64005;55.160;36.002;2023-02-10T04:55:00;99804.47;;;-4.60;75.74
75424;BME280;64005;55.160;36.002;2023-02-10T04:57:29;99795.09;;;-4.64;75.90
75424;BME280;64005;55.160;36.002;2023-02-10T04:59:57;99794.69;;;-4.68;76.67
75424;BME280;64005;55.160;36.002;2023-02-10T05:02:24;99790.97;;;-4.73;76.78
75424;BME280;64005;55.160;36.002;2023-02-10T05:04:53;99785.59;;;-4.80;76.43
75424;BME280;64005;55.160;36.002;2023-02-10T05:07:21;99784.59;;;-4.86;76.56
75424;BME280;64005;55.160;36.002;2023-02-10T05:09:48;99790.66;;;-4.90;76.78
75424;BME280;64005;55.160;36.002;2023-02-10T05:12:16;99791.94;;;-4.93;76.27
75424;BME280;64005;55.160;36.002;2023-02-10T05:14:43;99789.81;;;-4.91;76.18
75424;BME280;64005;55.160;36.002;2023-02-10T05:17:11;99791.06;;;-4.87;76.20
75424;BME280;64005;55.160;36.002;2023-02-10T05:19:39;99782.03;;;-4.81;76.60
75424;BME280;64005;55.160;36.002;2023-02-10T05:22:08;99783.25;;;-4.76;75.86
75424;BME280;64005;55.160;36.002;2023-02-10T05:24:36;99767.81;;;-4.76;75.93
75424;BME280;64005;55.160;36.002;2023-02-10T05:27:03;99768.44;;;-4.74;76.23
75424;BME280;64005;55.160;36.002;2023-02-10T05:29:31;99766.56;;;-4.73;76.25
75424;BME280;64005;55.160;36.002;2023-02-10T05:31:58;99770.09;;;-4.73;76.07
75424;BME280;64005;55.160;36.002;2023-02-10T05:34:25;99764.69;;;-4.73;76.36
75424;BME280;64005;55.160;36.002;2023-02-10T05:36:53;99773.41;;;-4.71;76.18
75424;BME280;64005;55.160;36.002;2023-02-10T05:39:22;99752.72;;;-4.65;76.29
75424;BME280;64005;55.160;36.002;2023-02-10T05:41:50;99735.31;;;-4.58;75.55
75424;BME280;64005;55.160;36.002;2023-02-10T05:44:18;99747.56;;;-4.49;75.49
75424;BME280;64005;55.160;36.002;2023-02-10T05:46:45;99751.91;;;-4.41;75.51
75424;BME280;64005;55.160;36.002;2023-02-10T05:49:13;99753.56;;;-4.40;75.37
75424;BME280;64005;55.160;36.002;2023-02-10T05:51:41;99753.22;;;-4.25;75.23
75424;BME280;64005;55.160;36.002;2023-02-10T05:54:09;99746.53;;;-4.23;74.98
75424;BME280;64005;55.160;36.002;2023-02-10T05:56:38;99699.16;;;-4.27;74.99
75424;BME280;64005;55.160;36.002;2023-02-10T05:59:06;99705.88;;;-4.11;75.02
75424;BME280;64005;55.160;36.002;2023-02-10T06:01:33;99705.81;;;-4.05;74.90
75424;BME280;64005;55.160;36.002;2023-02-10T06:04:01;99690.53;;;-3.99;75.11
75424;BME280;64005;55.160;36.002;2023-02-10T06:06:28;99682.50;;;-3.94;74.82
75424;BME280;64005;55.160;36.002;2023-02-10T06:08:56;99679.72;;;-3.87;74.93
75424;BME280;64005;55.160;36.002;2023-02-10T06:11:23;99661.69;;;-3.82;74.47
75424;BME280;64005;55.160;36.002;2023-02-10T06:13:52;99639.94;;;-3.82;74.61
75424;BME280;64005;55.160;36.002;2023-02-10T06:16:20;99630.78;;;-3.69;74.37
75424;BME280;64005;55.160;36.002;2023-02-10T06:18:47;99630.69;;;-3.63;74.28
75424;BME280;64005;55.160;36.002;2023-02-10T06:21:15;99626.22;;;-3.57;73.81
75424;BME280;64005;55.160;36.002;2023-02-10T06:23:43;99603.63;;;-3.57;73.82
75424;BME280;64005;55.160;36.002;2023-02-10T06:26:10;99588.75;;;-3.55;73.75
75424;BME280;64005;55.160;36.002;2023-02-10T06:28:38;99588.53;;;-3.53;73.58
75424;BME280;64005;55.160;36.002;2023-02-10T06:31:07;99596.84;;;-3.48;73.62
75424;BME280;64005;55.160;36.002;2023-02-10T06:33:35;99598.63;;;-3.42;73.37
75424;BME280;64005;55.160;36.002;2023-02-10T06:36:02;99614.84;;;-3.36;73.13
75424;BME280;64005;55.160;36.002;2023-02-10T06:38:31;99600.81;;;-3.33;73.03
75424;BME280;64005;55.160;36.002;2023-02-10T06:40:59;99609.44;;;-3.24;72.87
75424;BME280;64005;55.160;36.002;2023-02-10T06:43:26;99597.63;;;-3.18;72.68
75424;BME280;64005;55.160;36.002;2023-02-10T06:45:54;99592.91;;;-3.11;72.51
75424;BME280;64005;55.160;36.002;2023-02-10T06:48:23;99607.84;;;-3.02;72.52
75424;BME280;64005;55.160;36.002;2023-02-10T06:50:51;99590.94;;;-2.92;71.67
75424;BME280;64005;55.160;36.002;2023-02-10T06:53:19;99584.31;;;-2.85;71.80
75424;BME280;64005;55.160;36.002;2023-02-10T06:55:47;99565.63;;;-2.81;71.77
75424;BME280;64005;55.160;36.002;2023-02-10T06:58:15;99567.88;;;-2.78;71.60
75424;BME280;64005;55.160;36.002;2023-02-10T07:00:43;99577.25;;;-2.74;71.57
75424;BME280;64005;55.160;36.002;2023-02-10T07:03:12;99562.31;;;-2.83;71.71
75424;BME280;64005;55.160;36.002;2023-02-10T07:05:43;99554.03;;;-2.76;71.48
75424;BME280;64005;55.160;36.002;2023-02-10T07:08:10;99562.19;;;-2.76;71.50
75424;BME280;64005;55.160;36.002;2023-02-10T07:10:38;99561.97;;;-2.75;71.07
75424;BME280;64005;55.160;36.002;2023-02-10T07:13:06;99556.19;;;-2.67;70.76
75424;BME280;64005;55.160;36.002;2023-02-10T07:15:34;99550.84;;;-2.62;70.71
75424;BME280;64005;55.160;36.002;2023-02-10T07:18:01;99538.50;;;-2.64;70.52
75424;BME280;64005;55.160;36.002;2023-02-10T07:20:29;99553.78;;;-2.63;70.61
75424;BME280;64005;55.160;36.002;2023-02-10T07:22:58;99558.06;;;-2.67;70.46
75424;BME280;64005;55.160;36.002;2023-02-10T07:25:27;99552.03;;;-2.69;70.28
75424;BME280;64005;55.160;36.002;2023-02-10T07:27:54;99561.03;;;-2.81;70.46
75424;BME280;64005;55.160;36.002;2023-02-10T07:30:22;99570.81;;;-2.91;70.68
75424;BME280;64005;55.160;36.002;2023-02-10T07:32:50;99561.81;;;-3.03;70.95
75424;BME280;64005;55.160;36.002;2023-02-10T07:35:17;99559.91;;;-3.14;70.51
75424;BME280;64005;55.160;36.002;2023-02-10T07:37:45;99554.34;;;-3.19;70.86
75424;BME280;64005;55.160;36.002;2023-02-10T07:42:41;99559.38;;;-2.93;70.80
75424;BME280;64005;55.160;36.002;2023-02-10T07:45:09;99550.00;;;-2.74;69.81
75424;BME280;64005;55.160;36.002;2023-02-10T07:47:36;99559.00;;;-2.50;69.09
75424;BME280;64005;55.160;36.002;2023-02-10T07:50:04;99547.97;;;-2.20;68.62
75424;BME280;64005;55.160;36.002;2023-02-10T07:52:32;99549.88;;;-1.81;67.65
75424;BME280;64005;55.160;36.002;2023-02-10T07:54:59;99521.09;;;-1.43;67.66
75424;BME280;64005;55.160;36.002;2023-02-10T07:57:32;99522.63;;;-1.02;66.46
75424;BME280;64005;55.160;36.002;2023-02-10T07:59:59;99525.75;;;-0.77;66.11
75424;BME280;64005;55.160;36.002;2023-02-10T08:02:27;99530.13;;;-0.59;65.17
75424;BME280;64005;55.160;36.002;2023-02-10T08:04:54;99523.56;;;-0.42;65.36
75424;BME280;64005;55.160;36.002;2023-02-10T08:07:24;99515.72;;;-0.33;64.79
75424;BME280;64005;55.160;36.002;2023-02-10T08:09:51;99511.09;;;-0.32;64.55
75424;BME280;64005;55.160;36.002;2023-02-10T08:12:18;99512.94;;;-0.38;64.58
75424;BME280;64005;55.160;36.002;2023-02-10T08:14:47;99497.88;;;-0.41;65.11
75424;BME280;64005;55.160;36.002;2023-02-10T08:17:15;99490.19;;;-0.44;65.08
75424;BME280;64005;55.160;36.002;2023-02-10T08:19:42;99484.41;;;-0.47;64.46
75424;BME280;64005;55.160;36.002;2023-02-10T08:22:10;99462.81;;;-0.65;65.00
75424;BME280;64005;55.160;36.002;2023-02-10T08:24:38;99483.00;;;-0.50;64.54
75424;BME280;64005;55.160;36.002;2023-02-10T08:27:05;99486.22;;;-0.53;63.84
75424;BME280;64005;55.160;36.002;2023-02-10T08:29:33;99472.25;;;-0.56;64.33
75424;BME280;64005;55.160;36.002;2023-02-10T08:32:02;99464.06;;;-0.56;63.89
75424;BME280;64005;55.160;36.002;2023-02-10T08:34:29;99466.19;;;-0.58;64.51
75424;BME280;64005;55.160;36.002;2023-02-10T08:36:57;99473.75;;;-0.65;63.64
75424;BME280;64005;55.160;36.002;2023-02-10T08:39:26;99466.91;;;-0.85;64.01
75424;BME280;64005;55.160;36.002;2023-02-10T08:41:54;99476.00;;;-0.79;63.39
75424;BME280;64005;55.160;36.002;2023-02-10T08:44:21;99472.13;;;-0.83;63.94
75424;BME280;64005;55.160;36.002;2023-02-10T08:46:49;99449.22;;;-0.82;64.14
75424;BME280;64005;55.160;36.002;2023-02-10T08:49:18;99467.44;;;-0.88;63.83
75424;BME280;64005;55.160;36.002;2023-02-10T08:51:46;99450.47;;;-0.90;63.60
75424;BME280;64005;55.160;36.002;2023-02-10T08:54:13;99442.69;;;-0.81;63.99
75424;BME280;64005;55.160;36.002;2023-02-10T08:56:40;99443.41;;;-0.69;62.93
75424;BME280;64005;55.160;36.002;2023-02-10T08:59:08;99445.41;;;-0.59;63.23
75424;BME280;64005;55.160;36.002;2023-02-10T09:01:36;99446.25;;;-0.59;62.95
75424;BME280;64005;55.160;36.002;2023-02-10T09:04:04;99444.59;;;-0.60;62.98
75424;BME280;64005;55.160;36.002;2023-02-10T09:06:35;99435.97;;;-0.52;63.18
75424;BME280;64005;55.160;36.002;2023-02-10T09:09:05;99437.03;;;-0.53;62.75
75424;BME280;64005;55.160;36.002;2023-02-10T09:11:32;99428.59;;;-0.51;63.22
75424;BME280;64005;55.160;36.002;2023-02-10T09:14:00;99422.94;;;-0.45;62.65
75424;BME280;64005;55.160;36.002;2023-02-10T09:16:27;99430.63;;;-0.42;63.35
75424;BME280;64005;55.160;36.002;2023-02-10T09:18:55;99434.75;;;-0.39;62.68
75424;BME280;64005;55.160;36.002;2023-02-10T09:21:23;99437.28;;;-0.32;62.77
75424;BME280;64005;55.160;36.002;2023-02-10T09:24:02;99440.16;;;-0.22;61.83
75424;BME280;64005;55.160;36.002;2023-02-10T09:26:30;99397.31;;;-0.38;62.36
75424;BME280;64005;55.160;36.002;2023-02-10T09:28:58;99436.16;;;-0.15;62.00
75424;BME280;64005;55.160;36.002;2023-02-10T09:31:25;99431.13;;;-0.01;62.15
75424;BME280;64005;55.160;36.002;2023-02-10T09:37:13;99429.75;;;0.02;61.12
75424;BME280;64005;55.160;36.002;2023-02-10T09:39:42;99422.81;;;0.16;61.15
75424;BME280;64005;55.160;36.002;2023-02-10T09:42:17;99419.16;;;0.32;61.19
75424;BME280;64005;55.160;36.002;2023-02-10T09:44:51;99419.25;;;0.47;61.23
75424;BME280;64005;55.160;36.002;2023-02-10T09:47:36;99406.41;;;0.48;60.31
75424;BME280;64005;55.160;36.002;2023-02-10T10:00:30;99373.84;;;0.83;59.13
75424;BME280;64005;55.160;36.002;2023-02-10T10:02:57;99365.00;;;0.71;59.15
75424;BME280;64005;55.160;36.002;2023-02-10T10:09:11;99352.34;;;0.60;58.93
75424;BME280;64005;55.160;36.002;2023-02-10T10:11:45;99344.63;;;0.57;59.69
75424;BME280;64005;55.160;36.002;2023-02-10T10:14:17;99319.38;;;0.45;59.86
75424;BME280;64005;55.160;36.002;2023-02-10T10:17:09;99333.88;;;0.45;59.79
75424;BME280;64005;55.160;36.002;2023-02-10T10:19:52;99350.41;;;0.28;59.02
75424;BME280;64005;55.160;36.002;2023-02-10T10:22:35;99337.44;;;0.14;59.07
75424;BME280;64005;55.160;36.002;2023-02-10T10:25:31;99338.75;;;0.06;59.57
75424;BME280;64005;55.160;36.002;2023-02-10T10:28:12;99308.38;;;-0.24;59.22
75424;BME280;64005;55.160;36.002;2023-02-10T10:30:46;99336.69;;;-0.09;58.75
75424;BME280;64005;55.160;36.002;2023-02-10T10:33:24;99331.63;;;0.05;59.41
75424;BME280;64005;55.160;36.002;2023-02-10T10:35:56;99318.28;;;0.14;59.13
75424;BME280;64005;55.160;36.002;2023-02-10T10:38:30;99314.81;;;0.23;58.22
75424;BME280;64005;55.160;36.002;2023-02-10T10:41:01;99324.16;;;0.27;58.18
75424;BME280;64005;55.160;36.002;2023-02-10T10:43:32;99317.13;;;0.36;58.23
75424;BME280;64005;55.160;36.002;2023-02-10T10:46:11;99284.25;;;0.31;57.36
75424;BME280;64005;55.160;36.002;2023-02-10T10:48:42;99295.56;;;0.45;57.06
75424;BME280;64005;55.160;36.002;2023-02-10T10:51:11;99310.22;;;0.66;57.68
75424;BME280;64005;55.160;36.002;2023-02-10T10:53:42;99303.38;;;0.68;57.58
75424;BME280;64005;55.160;36.002;2023-02-10T10:56:17;99297.34;;;0.66;57.07
75424;BME280;64005;55.160;36.002;2023-02-10T10:58:49;99287.41;;;0.55;57.50
75424;BME280;64005;55.160;36.002;2023-02-10T11:01:18;99293.56;;;0.72;57.48
75424;BME280;64005;55.160;36.002;2023-02-10T11:04:05;99298.00;;;0.84;56.80
75424;BME280;64005;55.160;36.002;2023-02-10T11:06:35;99295.75;;;0.80;56.11
75424;BME280;64005;55.160;36.002;2023-02-10T11:09:05;99281.81;;;0.82;56.72
75424;BME280;64005;55.160;36.002;2023-02-10T11:11:36;99274.66;;;0.76;56.13
75424;BME280;64005;55.160;36.002;2023-02-10T11:14:13;99279.66;;;0.89;56.81
75424;BME280;64005;55.160;36.002;2023-02-10T11:16:43;99272.03;;;0.96;56.76
75424;BME280;64005;55.160;36.002;2023-02-10T11:19:20;99259.44;;;1.00;56.48
75424;BME280;64005;55.160;36.002;2023-02-10T11:21:49;99254.78;;;0.96;55.79
75424;BME280;64005;55.160;36.002;2023-02-10T11:24:20;99269.53;;;0.85;56.14
75424;BME280;64005;55.160;36.002;2023-02-10T11:26:59;99273.84;;;0.75;56.33
75424;BME280;64005;55.160;36.002;2023-02-10T11:29:29;99261.81;;;0.82;56.45
75424;BME280;64005;55.160;36.002;2023-02-10T11:31:57;99255.84;;;0.90;56.77
75424;BME280;64005;55.160;36.002;2023-02-10T11:34:29;99254.44;;;0.87;55.84
75424;BME280;64005;55.160;36.002;2023-02-10T11:36:59;99258.00;;;0.83;56.60
75424;BME280;64005;55.160;36.002;2023-02-10T11:39:39;99248.91;;;0.72;56.12
75424;BME280;64005;55.160;36.002;2023-02-10T11:42:10;99247.25;;;0.66;56.83
75424;BME280;64005;55.160;36.002;2023-02-10T11:44:38;99238.75;;;0.67;55.94
75424;BME280;64005;55.160;36.002;2023-02-10T11:47:13;99234.38;;;0.66;55.95
75424;BME280;64005;55.160;36.002;2023-02-10T11:49:45;99228.59;;;0.63;56.42
75424;BME280;64005;55.160;36.002;2023-02-10T11:52:13;99226.69;;;0.63;56.41
75424;BME280;64005;55.160;36.002;2023-02-10T11:54:42;99217.41;;;0.64;56.11
75424;BME280;64005;55.160;36.002;2023-02-10T11:57:21;99171.63;;;0.55;55.81
75424;BME280;64005;55.160;36.002;2023-02-10T12:00:15;99207.03;;;0.71;56.15
75424;BME280;64005;55.160;36.002;2023-02-10T12:03:01;99169.72;;;0.55;55.41
75424;BME280;64005;55.160;36.002;2023-02-10T12:05:39;99201.00;;;0.74;55.51
75424;BME280;64005;55.160;36.002;2023-02-10T12:08:17;99202.97;;;0.79;55.84
75424;BME280;64005;55.160;36.002;2023-02-10T12:10:51;99178.00;;;0.65;55.72
75424;BME280;64005;55.160;36.002;2023-02-10T12:13:31;99194.19;;;0.77;55.83
75424;BME280;64005;55.160;36.002;2023-02-10T12:16:12;99200.19;;;0.74;56.15
75424;BME280;64005;55.160;36.002;2023-02-10T12:18:59;99172.19;;;0.52;55.22
75424;BME280;64005;55.160;36.002;2023-02-10T12:21:53;99186.16;;;0.60;55.74
75424;BME280;64005;55.160;36.002;2023-02-10T12:24:48;99205.31;;;0.60;55.17
75424;BME280;64005;55.160;36.002;2023-02-10T12:27:27;99215.16;;;0.56;55.16
75424;BME280;64005;55.160;36.002;2023-02-10T12:30:04;99212.97;;;0.53;55.15
75424;BME280;64005;55.160;36.002;2023-02-10T12:32:42;99203.34;;;0.46;55.14
75424;BME280;64005;55.160;36.002;2023-02-10T12:35:24;99199.50;;;0.47;55.74
75424;BME280;64005;55.160;36.002;2023-02-10T12:38:06;99201.72;;;0.50;55.68
75424;BME280;64005;55.160;36.002;2023-02-10T12:40:43;99116.09;;;0.02;55.00
75424;BME280;64005;55.160;36.002;2023-02-10T12:43:26;99180.91;;;0.49;55.57
75424;BME280;64005;55.160;36.002;2023-02-10T12:46:05;99185.03;;;0.46;55.93
75424;BME280;64005;55.160;36.002;2023-02-10T12:48:48;99192.94;;;0.48;55.34
75424;BME280;64005;55.160;36.002;2023-02-10T12:51:25;99175.91;;;0.30;55.82
75424;BME280;64005;55.160;36.002;2023-02-10T12:54:02;99173.72;;;0.32;55.16
75424;BME280;64005;55.160;36.002;2023-02-10T12:56:33;99176.97;;;0.29;56.00
75424;BME280;64005;55.160;36.002;2023-02-10T12:59:10;99140.19;;;0.05;55.71
75424;BME280;64005;55.160;36.002;2023-02-10T13:01:43;99182.16;;;0.26;56.06
75424;BME280;64005;55.160;36.002;2023-02-10T13:04:18;99190.88;;;0.23;56.33
75424;BME280;64005;55.160;36.002;2023-02-10T13:06:52;99193.59;;;0.18;55.88
75424;BME280;64005;55.160;36.002;2023-02-10T13:09:27;99176.59;;;0.11;55.60
75424;BME280;64005;55.160;36.002;2023-02-10T13:12:14;99177.41;;;0.06;56.77
75424;BME280;64005;55.160;36.002;2023-02-10T13:14:45;99168.00;;;-0.08;56.55
75424;BME280;64005;55.160;36.002;2023-02-10T13:17:14;99172.41;;;-0.02;56.93
75424;BME280;64005;55.160;36.002;2023-02-10T13:19:52;99164.78;;;0.00;56.76
75424;BME280;64005;55.160;36.002;2023-02-10T13:22:25;99157.59;;;-0.06;56.58
75424;BME280;64005;55.160;36.002;2023-02-10T13:25:07;99155.66;;;-0.11;56.41
75424;BME280;64005;55.160;36.002;2023-02-10T13:27:49;99177.06;;;-0.03;57.27
75424;BME280;64005;55.160;36.002;2023-02-10T13:30:49;99163.59;;;-0.14;56.09
75424;BME280;64005;55.160;36.002;2023-02-10T13:33:25;99147.94;;;-0.19;56.69